TAF Text Data
IDs:
Format:
Raw Decoded Include METAR

Data at: 0259 UTC 21 Sep 2021

KSLC 202320Z 2100/2206 35011KT P6SM FEW080
  FM210500 14006KT P6SM SKC
  FM211800 33007KT P6SM SKC
  FM220400 14006KT P6SM SKC